Rothschild, Wisconsin
Current Conditions -  °F | °C
As of 7:01 PM on Wednesday 26 Nov 2014 (Local Time) from KAUW Reporting Station
Light Snow Light Snow  
Wind Chill: 15°   Ceiling: 4000
Heat Index: 23°   Visibility: 3mi
Dew Point: 20°   Wind: 7mph
Humidity: 88%   Direction: 310°NW
Pressure: 30.15"   Gusts: NA
Location:  44.89°N, 89.62°W
Report Text: KAUW 270101Z AUTO 31006KT 3SM -SN BR OVC040 M05/M07 A3015 RMK AO2 P0000 T10501067
Loading
Personal Weather Stations






























Interactive Weather Map New forecast layout! Learn more

10-Day Weather Forecast

Advertisements
Track Severe Weather on mobile